createdAt,value
2018-02-17T00:01:06.122Z,3.30
2018-02-17T00:05:08.670Z,3.30
2018-02-17T00:09:11.250Z,3.30
2018-02-17T00:13:13.774Z,3.30
2018-02-17T00:17:16.318Z,3.30
2018-02-17T00:21:18.896Z,3.30
2018-02-17T00:25:22.198Z,3.40
2018-02-17T00:29:25.489Z,3.50
2018-02-17T00:33:28.040Z,3.40
2018-02-17T00:37:30.571Z,3.50
2018-02-17T00:41:33.872Z,3.50
2018-02-17T00:45:36.409Z,3.50
2018-02-17T00:49:38.945Z,3.40
2018-02-17T00:53:41.489Z,3.40
2018-02-17T00:57:44.033Z,3.40
2018-02-17T01:01:47.338Z,3.30
2018-02-17T01:05:50.632Z,3.30
2018-02-17T01:09:53.241Z,3.30
2018-02-17T01:13:56.549Z,3.30
2018-02-17T01:17:59.870Z,3.30
2018-02-17T01:22:02.404Z,3.30
2018-02-17T01:26:04.925Z,3.30
2018-02-17T01:30:08.248Z,3.20
2018-02-17T01:34:10.758Z,3.20
2018-02-17T01:38:13.293Z,3.20
2018-02-17T01:42:15.827Z,3.20
2018-02-17T01:46:18.377Z,3.10
2018-02-17T01:50:32.637Z,3.20
2018-02-17T01:54:35.174Z,3.10
2018-02-17T01:58:37.713Z,3.20
2018-02-17T02:02:41.047Z,3.10
2018-02-17T02:06:43.562Z,3.10
2018-02-17T02:10:46.088Z,3.10
2018-02-17T02:14:48.620Z,3.20
2018-02-17T02:18:51.158Z,3.20
2018-02-17T02:22:53.689Z,3.10
2018-02-17T02:26:56.229Z,3.10
2018-02-17T02:30:58.803Z,3.20
2018-02-17T02:35:01.306Z,3.10
2018-02-17T02:39:03.837Z,3.10
2018-02-17T02:43:06.375Z,3.10
2018-02-17T02:47:08.923Z,3.10
2018-02-17T02:51:11.470Z,3.10
2018-02-17T02:55:14.756Z,3.20
2018-02-17T02:59:18.066Z,3.20
2018-02-17T03:03:21.357Z,3.20
2018-02-17T03:07:23.890Z,3.20
2018-02-17T03:11:26.432Z,3.20
2018-02-17T03:15:28.967Z,3.20
2018-02-17T03:19:31.490Z,3.20
2018-02-17T03:23:34.023Z,3.20
2018-02-17T03:27:36.541Z,3.20
2018-02-17T03:31:39.069Z,3.10
2018-02-17T03:35:42.364Z,3.10
2018-02-17T03:39:44.909Z,3.00
2018-02-17T03:43:47.550Z,3.10
2018-02-17T03:47:50.853Z,3.10
2018-02-17T03:51:54.128Z,3.10
2018-02-17T03:55:56.659Z,3.00
2018-02-17T03:59:59.199Z,3.10
2018-02-17T04:04:01.929Z,3.10
2018-02-17T04:08:05.785Z,3.10
2018-02-17T04:12:08.320Z,3.00
2018-02-17T04:16:11.580Z,3.10
2018-02-17T04:20:14.113Z,3.10
2018-02-17T04:24:17.380Z,3.10
2018-02-17T04:28:19.940Z,3.10
2018-02-17T04:32:22.482Z,3.20
2018-02-17T04:36:25.784Z,3.20
2018-02-17T04:40:43.907Z,3.10
2018-02-17T04:49:35.613Z,3.10
2018-02-17T04:53:44.519Z,3.10
2018-02-17T04:57:49.694Z,3.10
2018-02-17T05:01:54.430Z,3.10
2018-02-17T05:06:13.506Z,3.10
2018-02-17T05:10:16.792Z,3.10
2018-02-17T05:14:23.253Z,3.10
2018-02-17T05:18:25.809Z,3.10
2018-02-17T05:22:43.277Z,3.10
2018-02-17T05:26:50.290Z,3.10
2018-02-17T05:31:09.528Z,3.10
2018-02-17T05:35:16.902Z,3.10
2018-02-17T05:39:20.201Z,3.10
2018-02-17T05:43:22.734Z,3.10
2018-02-17T05:47:26.034Z,3.10
2018-02-17T05:51:28.555Z,3.00
2018-02-17T05:55:31.077Z,3.00
2018-02-17T05:59:33.601Z,2.90
2018-02-17T06:03:36.112Z,2.90
2018-02-17T06:07:38.678Z,2.80
2018-02-17T06:11:41.957Z,2.80
2018-02-17T06:15:44.489Z,2.80
2018-02-17T06:19:46.998Z,2.70
2018-02-17T06:23:49.836Z,2.70
2018-02-17T06:27:52.338Z,2.70
2018-02-17T06:31:55.946Z,2.80
2018-02-17T06:35:59.238Z,2.80
2018-02-17T06:40:01.874Z,2.80
2018-02-17T06:44:04.374Z,2.80
2018-02-17T06:48:06.901Z,2.80
2018-02-17T06:52:10.189Z,2.90
2018-02-17T06:56:12.708Z,2.80
2018-02-17T07:00:16.110Z,3.00
2018-02-17T07:04:18.646Z,2.90
2018-02-17T07:08:21.152Z,3.00
2018-02-17T07:12:23.766Z,3.10
2018-02-17T07:16:27.040Z,3.20
2018-02-17T07:20:29.574Z,3.20
2018-02-17T07:24:32.092Z,3.20
2018-02-17T07:28:34.622Z,3.30
2018-02-17T07:32:38.007Z,3.40
2018-02-17T07:36:40.531Z,3.40
2018-02-17T07:40:43.057Z,3.50
2018-02-17T07:44:45.628Z,3.60
2018-02-17T07:48:48.158Z,3.70
2018-02-17T07:52:50.696Z,3.80
2018-02-17T07:56:53.223Z,3.80
2018-02-17T08:00:56.534Z,4.00
2018-02-17T08:04:59.073Z,4.00
2018-02-17T08:09:01.787Z,4.20
2018-02-17T08:13:04.314Z,4.30
2018-02-17T08:17:07.614Z,4.90
2018-02-17T08:21:10.905Z,4.90
2018-02-17T08:25:13.436Z,4.90
2018-02-17T08:29:16.029Z,5.00
2018-02-17T08:33:18.566Z,5.00
2018-02-17T08:37:21.139Z,4.90
2018-02-17T08:41:23.646Z,4.90
2018-02-17T08:45:26.945Z,5.00
2018-02-17T08:49:30.285Z,5.10
2018-02-17T08:53:32.821Z,5.10
2018-02-17T08:57:35.332Z,5.00
2018-02-17T09:01:38.630Z,5.10
2018-02-17T09:05:41.908Z,5.10
2018-02-17T09:09:44.466Z,5.10
2018-02-17T09:13:46.970Z,5.20
2018-02-17T09:17:49.531Z,5.30
2018-02-17T09:21:52.052Z,5.30
2018-02-17T09:25:56.212Z,5.40
2018-02-17T09:29:59.490Z,5.60
2018-02-17T09:34:02.003Z,5.50
2018-02-17T09:38:05.284Z,5.60
2018-02-17T09:42:07.822Z,5.60
2018-02-17T09:46:10.336Z,5.70
2018-02-17T09:50:12.865Z,5.80
2018-02-17T09:54:15.394Z,5.90
2018-02-17T09:58:17.911Z,5.90
2018-02-17T10:02:20.477Z,6.00
2018-02-17T10:06:22.997Z,6.10
2018-02-17T10:10:26.393Z,6.10
2018-02-17T10:14:28.888Z,6.10
2018-02-17T10:18:32.185Z,6.20
2018-02-17T10:22:35.491Z,6.30
2018-02-17T10:26:38.789Z,6.30
2018-02-17T10:30:41.304Z,6.30
2018-02-17T10:34:43.846Z,6.30
2018-02-17T10:38:46.395Z,6.20
2018-02-17T10:42:48.935Z,6.20
2018-02-17T10:46:51.471Z,6.30
2018-02-17T10:50:54.000Z,6.50
2018-02-17T10:54:56.516Z,6.50
2018-02-17T10:58:59.051Z,6.70
2018-02-17T11:03:04.362Z,6.80
2018-02-17T11:07:23.386Z,6.90
2018-02-17T11:11:25.896Z,7.00
2018-02-17T11:15:29.209Z,7.10
2018-02-17T11:19:33.049Z,7.20
2018-02-17T11:23:35.595Z,7.20
2018-02-17T11:27:38.229Z,7.40
2018-02-17T11:31:40.758Z,7.40
2018-02-17T11:35:43.305Z,7.40
2018-02-17T11:39:46.581Z,7.30
2018-02-17T11:43:49.090Z,7.30
2018-02-17T11:47:51.624Z,7.10
2018-02-17T11:51:54.153Z,6.90
2018-02-17T11:55:56.697Z,6.80
2018-02-17T11:59:59.221Z,6.80
2018-02-17T12:04:01.888Z,6.80
2018-02-17T12:08:05.156Z,6.80
2018-02-17T12:12:07.678Z,6.80
2018-02-17T12:16:10.985Z,6.80
2018-02-17T12:20:14.300Z,6.80
2018-02-17T12:24:17.473Z,6.70
2018-02-17T12:28:20.012Z,6.80
2018-02-17T12:32:23.303Z,6.90
2018-02-17T12:36:25.834Z,6.80
2018-02-17T12:40:28.351Z,6.90
2018-02-17T12:44:31.644Z,7.00
2018-02-17T12:48:39.064Z,7.90
2018-02-17T12:52:41.592Z,7.80
2018-02-17T12:56:44.105Z,9.00
2018-02-17T13:00:46.724Z,9.20
2018-02-17T13:04:50.018Z,8.20
2018-02-17T13:08:53.319Z,7.70
2018-02-17T13:12:56.592Z,7.50
2018-02-17T13:16:59.206Z,7.50
2018-02-17T13:21:02.477Z,7.10
2018-02-17T13:25:05.003Z,7.20
2018-02-17T13:29:07.512Z,7.10
2018-02-17T13:33:10.075Z,7.00
2018-02-17T13:37:13.344Z,7.00
2018-02-17T13:41:15.871Z,7.00
2018-02-17T13:45:19.159Z,6.90
2018-02-17T13:49:22.477Z,7.00
2018-02-17T13:53:25.807Z,7.00
2018-02-17T13:57:28.282Z,7.00
2018-02-17T14:01:30.798Z,7.00
2018-02-17T14:05:33.337Z,6.90
2018-02-17T14:09:35.858Z,6.90
2018-02-17T14:13:38.391Z,6.80
2018-02-17T14:17:40.902Z,6.70
2018-02-17T14:21:43.455Z,6.60
2018-02-17T14:25:45.960Z,6.60
2018-02-17T14:29:49.297Z,6.70
2018-02-17T14:33:51.810Z,6.60
2018-02-17T14:37:54.354Z,6.60
2018-02-17T14:41:56.873Z,6.60
2018-02-17T14:45:59.707Z,6.50
2018-02-17T14:50:02.978Z,6.40
2018-02-17T14:54:05.499Z,6.40
2018-02-17T14:58:08.030Z,6.30
2018-02-17T15:02:10.568Z,6.30
2018-02-17T15:06:14.170Z,6.20
2018-02-17T15:10:16.687Z,6.20
2018-02-17T15:14:19.255Z,6.20
2018-02-17T15:18:22.778Z,6.10
2018-02-17T15:22:25.756Z,6.10
2018-02-17T15:26:28.351Z,6.10
2018-02-17T15:30:31.762Z,6.00
2018-02-17T15:34:35.095Z,5.90
2018-02-17T15:38:37.657Z,5.90
2018-02-17T15:42:41.502Z,5.90
2018-02-17T15:46:44.006Z,5.90
2018-02-17T15:50:46.656Z,5.90
2018-02-17T15:54:49.167Z,5.90
2018-02-17T15:58:51.722Z,5.90
2018-02-17T16:02:55.116Z,5.80
2018-02-17T16:06:59.130Z,5.70
2018-02-17T16:11:01.638Z,5.70
2018-02-17T16:15:04.197Z,5.70
2018-02-17T16:19:08.091Z,5.70
2018-02-17T16:23:10.605Z,5.70
2018-02-17T16:27:13.163Z,5.70
2018-02-17T16:31:15.663Z,5.70
2018-02-17T16:35:18.214Z,5.60
2018-02-17T16:39:20.744Z,5.50
2018-02-17T16:43:23.280Z,5.50
2018-02-17T16:47:25.794Z,5.50
2018-02-17T16:51:28.444Z,5.50
2018-02-17T16:59:39.943Z,5.30
2018-02-17T17:03:43.212Z,5.20
2018-02-17T17:07:45.740Z,5.20
2018-02-17T17:11:49.015Z,5.20
2018-02-17T17:15:51.550Z,5.10
2018-02-17T17:19:54.056Z,5.10
2018-02-17T17:23:56.592Z,5.20
2018-02-17T17:27:59.861Z,5.00
2018-02-17T17:32:02.968Z,5.00
2018-02-17T17:36:05.480Z,5.00
2018-02-17T17:40:08.798Z,5.00
2018-02-17T17:44:11.313Z,4.90
2018-02-17T17:48:14.552Z,5.00
2018-02-17T17:52:17.108Z,5.00
2018-02-17T17:56:19.641Z,4.90
2018-02-17T18:00:22.968Z,4.80
2018-02-17T18:04:25.518Z,4.80
2018-02-17T18:08:28.037Z,4.80
2018-02-17T18:12:30.572Z,4.70
2018-02-17T18:16:33.100Z,4.60
2018-02-17T18:20:36.415Z,4.50
2018-02-17T18:24:38.953Z,4.50
2018-02-17T18:28:41.511Z,4.50
2018-02-17T18:32:44.069Z,4.40
2018-02-17T18:36:46.618Z,4.40
2018-02-17T18:40:49.184Z,4.40
2018-02-17T18:44:51.695Z,4.40
2018-02-17T18:48:54.250Z,4.40
2018-02-17T18:52:56.761Z,4.40
2018-02-17T18:56:59.298Z,4.40
2018-02-17T19:01:01.825Z,4.40
2018-02-17T19:05:04.376Z,4.40
2018-02-17T19:09:06.911Z,4.40
2018-02-17T19:13:09.457Z,4.40
2018-02-17T19:17:12.021Z,4.30
2018-02-17T19:21:15.304Z,4.30
2018-02-17T19:25:18.605Z,4.30
2018-02-17T19:29:21.193Z,4.30
2018-02-17T19:33:24.512Z,4.30
2018-02-17T19:37:27.849Z,4.20
2018-02-17T19:41:30.390Z,4.20
2018-02-17T19:45:33.727Z,4.20
2018-02-17T19:49:36.261Z,4.20
2018-02-17T19:53:38.830Z,4.30
2018-02-17T19:57:41.348Z,4.30
2018-02-17T20:01:44.668Z,4.20
2018-02-17T20:05:48.000Z,4.30
2018-02-17T20:09:50.574Z,4.30
2018-02-17T20:13:53.167Z,4.20
2018-02-17T20:17:56.450Z,4.20
2018-02-17T20:21:59.919Z,4.20
2018-02-17T20:26:02.522Z,4.20
2018-02-17T20:30:06.224Z,4.20
2018-02-17T20:34:08.811Z,4.20
2018-02-17T20:38:11.349Z,4.20
2018-02-17T20:42:13.987Z,4.20
2018-02-17T20:46:17.569Z,4.20
2018-02-17T20:50:20.200Z,4.10
2018-02-17T20:54:22.763Z,4.10
2018-02-17T20:58:25.417Z,4.00
2018-02-17T21:02:28.007Z,4.00
2018-02-17T21:06:30.562Z,4.00
2018-02-17T21:10:33.873Z,4.00
2018-02-17T21:14:37.591Z,3.90
2018-02-17T21:18:40.188Z,3.90
2018-02-17T21:22:42.795Z,3.90
2018-02-17T21:26:45.385Z,3.90
2018-02-17T21:30:47.968Z,3.90
2018-02-17T21:34:54.194Z,3.90
2018-02-17T21:38:57.525Z,3.90
2018-02-17T21:43:00.069Z,3.90
2018-02-17T21:47:02.708Z,3.90
2018-02-17T21:51:05.257Z,3.90
2018-02-17T21:55:08.610Z,3.80
2018-02-17T21:59:11.138Z,3.80
2018-02-17T22:03:13.811Z,3.80
2018-02-17T22:07:16.372Z,3.80
2018-02-17T22:11:18.925Z,3.80
2018-02-17T22:15:22.281Z,3.80
2018-02-17T22:19:24.810Z,3.80
2018-02-17T22:23:28.158Z,3.70
2018-02-17T22:27:30.682Z,3.70
2018-02-17T22:31:33.242Z,3.70
2018-02-17T22:35:35.761Z,3.70
2018-02-17T22:39:38.880Z,3.70
2018-02-17T22:43:42.178Z,3.60
2018-02-17T22:47:45.489Z,3.60
2018-02-17T22:51:48.779Z,3.60
2018-02-17T22:55:52.422Z,3.60
2018-02-17T22:59:54.970Z,3.60
2018-02-17T23:03:57.570Z,3.60
2018-02-17T23:08:00.909Z,3.60
2018-02-17T23:12:03.525Z,3.60
2018-02-17T23:16:06.067Z,3.50
2018-02-17T23:20:08.589Z,3.50
2018-02-17T23:24:11.181Z,3.50
2018-02-17T23:28:13.725Z,3.40
2018-02-17T23:32:16.245Z,3.40
2018-02-17T23:36:18.782Z,3.40
2018-02-17T23:40:22.079Z,3.30
2018-02-17T23:44:25.404Z,3.30
2018-02-17T23:48:27.949Z,3.30
2018-02-17T23:52:30.471Z,3.20
2018-02-17T23:56:33.034Z,3.20
